• Join FlightAware (Why Join?)
  • Login
  • US Flag 
11:26PM EDT


 

Airport Tracker/Info


-or-


 

Live Flight TrackerFlight Track Log ✈ VOZ1487 ✈ 22-Jul-2013 ✈ YPPH / PER - YBRM / BME

Flight Track Log - Related Links

Times and Time Zones

All times are in EDT time to prevent confusion due to time zone crossing. See the VOZ1487 flight status page for this flight to view local times or setup timezone preferences in your user account.

Time Position Orientation Groundspeed Altitude Reporting Facility
EDT Latitude Longitude Course Direction KTS MPH feet Rate Location/Type
04:41AM -31.9158 116.0083 59° Northeast 155 178 1,800  Level Aus ATC (RADAR)
04:41AM -31.8965 116.0461 59° Northeast 198 228 3,200 1,860 Climbing Aus ATC (RADAR)
04:42AM -31.8799 116.0789 59° Northeast 225 259 4,000 2,520 Climbing Aus ATC (RADAR)
04:43AM -31.8527 116.1399 62° Northeast 243 280 6,600 2,940 Climbing Aus ATC (RADAR)
04:44AM -31.8362 116.2279 78° East 265 305 9,400 2,520 Climbing Aus ATC (RADAR)
04:44AM -31.8239 116.2907 77° East 284 327 10,800 2,100 Climbing Aus ATC (RADAR)
04:45AM -31.8122 116.3503 77° East 308 354 12,000 2,100 Climbing Aus ATC (RADAR)
04:45AM -31.7999 116.4122 77° East 319 367 13,300 2,220 Climbing Aus ATC (RADAR)
04:46AM -31.7804 116.5135 77° East 334 384 15,400 2,220 Climbing Aus ATC (RADAR)
04:47AM -31.7690 116.5706 77° East 343 395 16,500 1,800 Climbing Aus ATC (RADAR)
04:47AM -31.7497 116.6368 71° East 357 411 17,400 1,800 Climbing Aus ATC (RADAR)
04:48AM -31.6960 116.7045 47° Northeast 372 428 18,900 1,980 Climbing Aus ATC (RADAR)
04:49AM -31.6530 116.7570 46° Northeast 377 434 20,100 2,040 Climbing Aus ATC (RADAR)
04:49AM -31.6034 116.8185 47° Northeast 381 438 21,500 1,920 Climbing Aus ATC (RADAR)
04:50AM -31.5176 116.8948 37° Northeast 381 438 23,300 1,680 Climbing Aus ATC (RADAR)
04:51AM -31.4403 116.9252 19° North 391 450 24,500 1,440 Climbing Aus ATC (RADAR)
04:52AM -31.3355 116.9687 19° North 403 464 25,900 1,380 Climbing Aus ATC (RADAR)
04:53AM -31.2549 117.0016 19° North 410 472 27,000 1,140 Climbing Aus ATC (RADAR)
04:53AM -31.1912 117.0275 19° North 416 479 27,500 780 Climbing Aus ATC (RADAR)
04:54AM -31.1064 117.0622 19° North 431 496 28,100 960 Climbing Aus ATC (RADAR)
04:55AM -30.9900 117.1097 19° North 446 513 29,200 900 Climbing Aus ATC (RADAR)
04:56AM -30.8813 117.1538 19° North 453 521 29,900 840 Climbing Aus ATC (RADAR)
04:57AM -30.7310 117.2223 21° North 468 539 31,100 780 Climbing Aus ATC (RADAR)
04:58AM -30.6084 117.2792 22° Northeast 477 549 31,700 660 Climbing Aus ATC (RADAR)
04:59AM -30.5146 117.3218 21° North 485 558 32,300 720 Climbing Aus ATC (RADAR)
05:00AM -30.4408 117.3550 21° North 488 562 32,700 780 Climbing Aus ATC (RADAR)
05:01AM -30.3354 117.4038 22° Northeast 488 562 33,500 720 Climbing Aus ATC (RADAR)
05:01AM -30.2084 117.4620 22° Northeast 494 568 34,100 780 Climbing Aus ATC (RADAR)
05:02AM -30.1343 117.4953 21° North 492 566 34,800 840 Climbing Aus ATC (RADAR)
05:03AM -30.0512 117.5331 21° North 483 556 35,200 240 Climbing Aus ATC (RADAR)
05:03AM -29.9554 117.5770 22° Northeast 494 568 35,200  Level Aus ATC (RADAR)
05:04AM -29.8254 117.6344 21° North 501 577 35,200  Level Aus ATC (RADAR)
05:05AM -29.7502 117.6689 22° Northeast 500 575 35,200  Level Aus ATC (RADAR)
05:06AM -29.6745 117.7030 21° North 502 578 35,200  Level Aus ATC (RADAR)
05:06AM -29.5879 117.7420 21° North 501 577 35,200  Level Aus ATC (RADAR)
05:07AM -29.5121 117.7760 21° North 501 577 35,200  Level Aus ATC (RADAR)
05:08AM -29.4243 117.8146 21° North 506 582 35,200  Level Aus ATC (RADAR)
05:08AM -29.3257 117.8583 21° North 508 585 35,200  Level Aus ATC (RADAR)
05:09AM -29.1941 117.9167 21° North 507 583 35,200  Level Aus ATC (RADAR)
05:10AM -29.0957 117.9625 22° Northeast 510 587 35,200  Level Aus ATC (RADAR)
05:11AM -29.0184 117.9955 20° North 509 586 35,200  Level Aus ATC (RADAR)
05:11AM -28.9090 118.0439 21° North 507 583 35,200  Level Aus ATC (RADAR)
05:12AM -28.8427 118.0717 20° North 508 585 35,200  Level Aus ATC (RADAR)
05:13AM -28.7003 118.1353 21° North 510 587 35,200  Level Aus ATC (RADAR)
05:14AM -28.6337 118.1630 20° North 512 589 35,200  Level Aus ATC (RADAR)
05:14AM -28.5568 118.1971 21° North 511 588 35,200  Level Aus ATC (RADAR)
05:15AM -28.4684 118.2370 22° Northeast 511 588 35,200  Level Aus ATC (RADAR)
05:15AM -28.3913 118.2714 21° North 512 589 35,200  Level Aus ATC (RADAR)
05:16AM -28.3127 118.3023 19° North 512 589 35,200  Level Aus ATC (RADAR)
05:20AM -27.9836 118.4535 21° North 37,000  Climbing Aus ATC (Calculated)
05:20AM -27.9072 118.4867 21° North 37,000 -120 Level Aus ATC (Calculated)
05:22AM -28.0468 118.4260 201° Southwest  Level FlightAware Approximate
05:23AM -27.9272 118.4780 21° North  Level FlightAware Approximate
05:24AM -27.9360 118.4742 21° North  Level FlightAware Approximate
05:25AM -27.8163 118.5262 21° North  Level FlightAware Approximate
05:26AM -27.6966 118.5781 21° North  Level FlightAware Approximate
05:27AM -27.5769 118.6298 21° North  Level FlightAware Approximate
05:27AM -27.0477 118.8572 21° North 37,000  Level Aus ATC (Calculated)
05:27AM -26.9760 118.8878 21° North 37,000 -240 Level Aus ATC (Calculated)
05:27AM -26.9760 118.8878 21° North 37,000 -240 Level Aus ATC (Calculated)
05:29AM -26.8402 118.9457 21° North  Level FlightAware Approximate
05:30AM -26.7204 118.9967 21° North  Level FlightAware Approximate
05:30AM -26.5317 119.0767 21° North 37,000  Level Aus ATC (Calculated)
05:31AM -26.6005 119.0476 21° North  Level FlightAware Approximate
05:32AM -26.6715 119.0175 201° Southwest  Level FlightAware Approximate
05:33AM -26.6865 119.0111 21° North  Level FlightAware Approximate
05:34AM -26.5666 119.0619 21° North  Level FlightAware Approximate
05:35AM -26.4468 119.1126 21° North  Level FlightAware Approximate
05:36AM -25.7111 119.4218 21° North 494 568 35,200  Level Aus ATC (RADAR)
05:36AM -25.6325 119.4563 22° Northeast 510 587 35,200  Level Aus ATC (RADAR)
05:37AM -25.5337 119.4975 21° North 508 585 35,200  Level Aus ATC (RADAR)
05:38AM -25.4567 119.5294 21° North 508 585 35,200  Level Aus ATC (RADAR)
05:38AM -25.3792 119.5611 20° North 506 582 35,200  Level Aus ATC (RADAR)
05:39AM -25.2805 119.6018 20° North 506 582 35,200  Level Aus ATC (RADAR)
05:40AM -25.1496 119.6559 20° North 503 579 35,200  Level Aus ATC (RADAR)
05:41AM -25.0518 119.6959 20° North 499 574 35,200  Level Aus ATC (RADAR)
05:41AM -24.9743 119.7286 21° North 507 583 35,200  Level Aus ATC (RADAR)
05:42AM -24.8982 119.7598 20° North 504 580 35,200  Level Aus ATC (RADAR)
05:43AM -24.7998 119.8001 20° North 502 578 35,200  Level Aus ATC (RADAR)
05:44AM -24.6714 119.8518 20° North 494 568 35,200  Level Aus ATC (RADAR)
05:44AM -24.5731 119.8921 20° North 499 574 35,200  Level Aus ATC (RADAR)
05:45AM -24.4949 119.9247 21° North 508 585 35,200  Level Aus ATC (RADAR)
05:45AM -24.4215 119.9539 20° North 494 568 35,200  Level Aus ATC (RADAR)
05:46AM -24.3344 119.9895 20° North 498 573 35,200  Level Aus ATC (RADAR)
05:47AM -24.2589 120.0202 20° North 496 571 35,200  Level Aus ATC (RADAR)
05:47AM -24.1720 120.0556 20° North 497 572 35,200  Level Aus ATC (RADAR)
05:48AM -24.0961 120.0866 20° North 497 572 35,200  Level Aus ATC (RADAR)
05:49AM -24.0201 120.1172 20° North 498 573 35,200  Level Aus ATC (RADAR)
05:49AM -23.9240 120.1563 20° North 494 568 35,200  Level Aus ATC (RADAR)
05:50AM -23.7937 120.2088 20° North 494 568 35,200  Level Aus ATC (RADAR)
05:51AM -23.7088 120.2435 20° North 486 559 35,200  Level Aus ATC (RADAR)
05:52AM -23.6353 120.2737 21° North 462 532 35,200  Level Aus ATC (RADAR)
05:52AM -23.5584 120.3043 20° North 482 555 35,200  Level Aus ATC (RADAR)
05:53AM -23.4486 120.3478 20° North 491 565 35,200  Level Aus ATC (RADAR)
05:53AM -23.3727 120.3781 20° North 496 571 35,200  Level Aus ATC (RADAR)
05:54AM -23.3002 120.4083 21° North 484 557 35,200  Level Aus ATC (RADAR)
05:55AM -23.2308 120.4340 19° North 504 580 35,200  Level Aus ATC (RADAR)
05:55AM -23.1583 120.4639 21° North 489 563 35,200  Level Aus ATC (RADAR)
05:56AM -23.0820 120.4937 20° North 492 566 35,200  Level Aus ATC (RADAR)
05:56AM -23.0090 120.5234 21° North 486 559 35,200  Level Aus ATC (RADAR)
05:57AM -22.9344 120.5530 20° North 487 560 35,200  Level Aus ATC (RADAR)
05:58AM -22.8294 120.5954 20° North 482 555 35,200  Level Aus ATC (RADAR)
05:59AM -22.7132 120.6418 20° North 483 556 35,200  Level Aus ATC (RADAR)
05:59AM -22.6151 120.6793 19° North 490 564 35,200  Level Aus ATC (RADAR)
06:00AM -22.5406 120.7085 20° North 487 560 35,200  Level Aus ATC (RADAR)
06:01AM -22.4661 120.7379 20° North 488 562 35,200  Level Aus ATC (RADAR)
06:01AM -22.3927 120.7675 20° North 483 556 35,200  Level Aus ATC (RADAR)
06:02AM -22.3185 120.7968 20° North 485 558 35,200  Level Aus ATC (RADAR)
06:03AM -22.2098 120.8381 19° North 488 562 35,200  Level Aus ATC (RADAR)
06:03AM -22.1383 120.8677 21° North 480 552 35,200  Level Aus ATC (RADAR)
06:04AM -22.0649 120.8965 20° North 479 551 35,200  Level Aus ATC (RADAR)
06:04AM -21.9911 120.9253 20° North 479 551 35,200  Level Aus ATC (RADAR)
06:05AM -21.9172 120.9542 20° North 481 554 35,200  Level Aus ATC (RADAR)
06:06AM -21.8233 120.9917 20° North 479 551 35,200  Level Aus ATC (RADAR)
06:06AM -21.7593 121.0160 19° North 481 554 35,200  Level Aus ATC (RADAR)
06:07AM -21.6846 121.0443 19° North 483 556 35,200  Level Aus ATC (RADAR)
06:07AM -21.5996 121.0770 20° North 483 556 35,200  Level Aus ATC (RADAR)
06:08AM -21.5153 121.1102 20° North 483 556 35,200  Level Aus ATC (RADAR)
06:09AM -21.4311 121.1433 20° North 481 554 35,200  Level Aus ATC (RADAR)
06:10AM -21.3056 121.1932 20° North 480 552 35,200  Level Aus ATC (RADAR)
06:13AM -20.8368 121.3740 20° North 37,000 540 Climbing Aus ATC (Calculated)
06:13AM -20.7880 121.3928 20° North 37,000  Level Aus ATC (Calculated)
06:14AM -20.6048 121.4630 199° South 37,000  Level Aus ATC (Calculated)
06:15AM -20.6090 121.4614 20° North  Level FlightAware Approximate
06:16AM -20.4560 121.5200 20° North  Level FlightAware Approximate
06:16AM -20.3987 121.5418 20° North 37,000  Level Aus ATC (Calculated)
06:18AM -20.2196 121.6102 20° North  Level FlightAware Approximate
06:19AM -20.0989 121.6561 20° North  Level FlightAware Approximate
06:20AM -19.9782 121.7020 20° North  Level FlightAware Approximate
06:20AM -19.9700 121.7055 200° South 9,300  Level Aus ATC (Calculated)
06:21AM -20.0905 121.6591 200° South  Level FlightAware Approximate
06:21AM -19.7307 121.7965 200° South 9,300  Level Aus ATC (Calculated)
06:22AM -19.9700 121.7055 20° North  Level FlightAware Approximate
06:23AM -19.8534 121.7498 200° South  Level FlightAware Approximate
06:23AM -19.5691 121.8577 12° North 9,300  Level Aus ATC (Calculated)
06:25AM -19.3563 121.9072 20° North  Level Estimated
06:25AM -19.2863 121.9646 20° North 9,300  Level Aus ATC (Calculated)
06:26AM -19.1272 122.0246 20° North 9,300  Level Aus ATC (Calculated)
06:27AM -19.0410 122.0570 288° West 9,300  Level Aus ATC (Calculated)
06:27AM -19.0410 122.0570 20° North 9,300  Level Aus ATC (Calculated)
06:29AM -18.8357 122.1341 20° North  Level FlightAware Approximate
06:30AM -18.7148 122.1794 20° North  Level FlightAware Approximate
06:31AM -18.5940 122.2246 20° North  Level FlightAware Approximate
06:32AM -18.4732 122.2698 20° North  Level FlightAware Approximate
06:33AM -18.3523 122.3149 19° North  Level FlightAware Approximate
06:33AM -18.3147 122.2711 175° South 500  Level Aus ATC (Calculated)
06:35AM -18.4828 122.2875 175° South  Level FlightAware Approximate
06:36AM -18.3551 122.2751 355° North  Level FlightAware Approximate
06:36AM -18.1919 122.2592 360° North 500  Level Aus ATC (Calculated)
06:36AM -18.1919 122.2592 175° South 500  Level Aus ATC (Calculated)
06:38AM -18.4004 122.2795 175° South  Level FlightAware Approximate
06:39AM -18.3727 122.2768 355° North  Level FlightAware Approximate
06:40AM -18.2450 122.2643 355° North  Level FlightAware Approximate
06:41AM -18.1174 122.2519 355° North  Level FlightAware Approximate
06:42AM -17.9897 122.2395 355° North  Level FlightAware Approximate
06:43AM -17.9496 122.2277 245° Southwest  Level FlightAware Approximate
06:44AM -17.9447 122.2317 245° Southwest  Level Estimated
06:45AM -17.9496 122.2277 245° Southwest  Level FlightAware Approximate
06:46AM -17.9447 122.2317 245° Southwest  Level Estimated
06:47AM -17.9496 122.2277 245° Southwest  Level FlightAware Approximate
06:48AM -17.9447 122.2317 245° Southwest  Level Estimated
06:49AM -17.9496 122.2277 245° Southwest  Level FlightAware Approximate
06:50AM -17.9447 122.2317 245° Southwest  Level Estimated
06:51AM -17.9496 122.2277 245° Southwest  Level FlightAware Approximate
06:52AM -17.9447 122.2317 245° Southwest  Level Estimated
06:53AM -17.9496 122.2277 245° Southwest  Level FlightAware Approximate
06:54AM -17.9447 122.2317 245° Southwest  Level Estimated
06:55AM -17.9496 122.2277 245° Southwest  Level FlightAware Approximate
06:56AM -17.9447 122.2317 245° Southwest  Level Estimated